Time;durP1;ratioP1;P1;durP2;ratioP2;P2;SDS_P1;SDS_P2;PMS_P1;PMS_P2;Temp;Humidity;BMP_temperature;BMP_pressure;BME280_temperature;BME280_humidity;BME280_pressure;Samples;Min_cycle;Max_cycle;Signal;HPM_P1;HPM_P2
2022/09/08 00:02:00;;;;;;;10.70;5.45;;;;;;;18.11;69.98;100832.38;5069929;28;20422;-71
2022/09/08 00:04:26;;;;;;;9.80;5.72;;;;;;;18.12;70.09;100828.94;5070286;28;20017;-70
2022/09/08 00:06:53;;;;;;;11.77;5.60;;;;;;;18.08;70.77;100833.22;5070427;28;20044;-67
2022/09/08 00:09:19;;;;;;;11.07;5.13;;;;;;;18.06;71.54;100831.47;5070431;28;20013;-73
2022/09/08 00:11:45;;;;;;;6.43;5.15;;;;;;;18.12;71.91;100831.53;5048346;28;20037;-70
2022/09/08 00:14:11;;;;;;;8.32;5.15;;;;;;;18.09;72.03;100832.38;5061929;28;20032;-70
2022/09/08 00:16:40;;;;;;;11.63;5.45;;;;;;;18.07;72.42;100833.22;5069995;28;20029;-70
2022/09/08 00:19:05;;;;;;;10.13;5.33;;;;;;;17.92;72.16;100805.16;5069387;28;20024;-72
2022/09/08 00:21:31;;;;;;;12.65;5.38;;;;;;;18.06;72.02;100826.25;5070819;28;20270;-68
2022/09/08 00:23:56;;;;;;;8.88;5.65;;;;;;;17.97;70.92;100800.88;5050892;28;20045;-68
2022/09/08 00:26:22;;;;;;;8.43;5.05;;;;;;;18.01;71.26;100818.34;5069702;28;20021;-72
2022/09/08 00:28:48;;;;;;;9.57;5.57;;;;;;;18.06;70.53;100821.00;5048668;28;20095;-70
2022/09/08 00:31:14;;;;;;;8.00;5.47;;;;;;;18.11;70.50;100816.72;5064860;28;20501;-74
2022/09/08 00:33:39;;;;;;;9.70;5.35;;;;;;;18.17;70.20;100824.63;5069842;28;20016;-75
2022/09/08 00:36:07;;;;;;;9.35;5.40;;;;;;;18.22;69.75;100816.84;5073623;28;20111;-76
2022/09/08 00:38:33;;;;;;;8.15;5.45;;;;;;;17.92;69.15;100747.69;5037933;28;20037;-75
2022/09/08 00:40:58;;;;;;;8.07;5.40;;;;;;;18.32;69.54;100815.19;5072553;28;20035;-75
2022/09/08 00:43:39;;;;;;;10.70;5.30;;;;;;;18.08;69.58;100793.16;5073443;28;20024;-72
2022/09/08 00:46:16;;;;;;;8.18;5.40;;;;;;;17.98;69.71;100780.84;5073242;28;20044;-72
2022/09/08 00:48:52;;;;;;;11.60;5.35;;;;;;;17.91;69.76;100791.19;5072930;28;20037;-72
2022/09/08 00:51:19;;;;;;;9.52;5.30;;;;;;;18.06;70.02;100824.50;5072642;28;20031;-75
2022/09/08 00:53:47;;;;;;;13.20;5.25;;;;;;;18.00;70.26;100831.38;5073077;28;20423;-74
2022/09/08 00:56:13;;;;;;;8.30;5.43;;;;;;;17.89;70.14;100824.25;5073252;28;20036;-75
2022/09/08 00:58:41;;;;;;;7.22;5.40;;;;;;;17.76;70.87;100827.56;5073131;28;20107;-75
2022/09/08 01:01:07;;;;;;;10.52;5.25;;;;;;;17.82;71.04;100837.22;5073856;28;20522;-79
2022/09/08 01:03:36;;;;;;;9.82;5.75;;;;;;;17.72;71.51;100830.97;5073446;28;20056;-75
2022/09/08 01:12:43;;;;;;;7.97;5.20;;;;;;;17.68;71.68;100847.47;5072904;28;20506;-75
2022/09/08 01:12:44;;;;;;;9.15;5.30;;;;;;;16.85;73.25;100774.91;4972653;28;20069;-74
2022/09/08 01:15:13;;;;;;;11.18;5.47;;;;;;;17.19;73.45;100837.19;4972207;28;20061;-74
2022/09/08 01:17:39;;;;;;;13.93;5.80;;;;;;;17.32;73.14;100836.53;4971963;28;20050;-74
2022/09/08 01:20:09;;;;;;;12.00;5.90;;;;;;;17.36;73.19;100827.00;4971934;28;20037;-74
2022/09/08 01:23:05;;;;;;;10.98;6.30;;;;;;;17.28;75.09;100830.41;4971546;28;20476;-75
2022/09/08 01:25:53;;;;;;;10.32;5.32;;;;;;;17.08;77.69;100832.66;4971765;28;20037;-77
2022/09/08 01:29:08;;;;;;;9.45;5.57;;;;;;;17.15;77.87;100828.44;4955539;28;20023;-72
2022/09/08 01:31:38;;;;;;;8.10;5.35;;;;;;;17.09;78.36;100836.16;4895006;29;20072;-75
2022/09/08 01:34:04;;;;;;;8.30;5.65;;;;;;;17.06;78.37;100823.97;4895617;29;20033;-77
2022/09/08 01:36:30;;;;;;;13.85;5.63;;;;;;;17.11;77.99;100816.22;4895348;29;20111;-73
2022/09/08 01:38:55;;;;;;;7.65;5.65;;;;;;;17.22;77.50;100822.47;4895396;29;20037;-76
2022/09/08 01:41:21;;;;;;;9.32;5.90;;;;;;;17.23;77.70;100824.19;4895024;29;20122;-78
2022/09/08 01:43:46;;;;;;;8.98;5.97;;;;;;;17.23;77.87;100824.19;4895432;29;20028;-73
2022/09/08 01:46:12;;;;;;;10.30;5.30;;;;;;;17.14;77.41;100826.69;4894389;29;20135;-75
2022/09/08 01:48:37;;;;;;;7.97;5.50;;;;;;;17.03;77.98;100817.81;4927664;28;20034;-73
2022/09/08 01:51:06;;;;;;;7.43;5.68;;;;;;;17.13;77.34;100819.69;4991120;28;20030;-76
2022/09/08 01:53:32;;;;;;;7.63;5.20;;;;;;;17.18;76.69;100822.41;4990494;28;20449;-76
2022/09/08 01:55:58;;;;;;;8.60;5.90;;;;;;;16.95;76.57;100784.66;4990932;28;20132;-77
2022/09/08 01:58:25;;;;;;;8.75;5.90;;;;;;;17.03;77.12;100825.63;4990808;28;20121;-74
2022/09/08 02:00:51;;;;;;;8.60;5.60;;;;;;;16.98;77.15;100829.06;4990791;28;20499;-73
2022/09/08 02:03:16;;;;;;;11.70;5.68;;;;;;;16.91;76.87;100811.53;4990833;28;20030;-76
2022/09/08 02:05:44;;;;;;;8.20;5.68;;;;;;;16.95;77.18;100818.56;4990675;28;20034;-77
2022/09/08 02:08:10;;;;;;;10.93;6.10;;;;;;;16.91;76.92;100814.16;5050014;28;20507;-75
2022/09/08 02:10:35;;;;;;;14.55;5.80;;;;;;;16.82;76.71;100814.84;5072427;28;20069;-77
2022/09/08 02:13:02;;;;;;;11.95;5.78;;;;;;;16.86;75.85;100814.88;5072402;28;20100;-75
2022/09/08 02:15:28;;;;;;;10.35;5.75;;;;;;;16.82;76.26;100813.94;5072543;28;20115;-76
2022/09/08 02:17:53;;;;;;;11.45;5.90;;;;;;;16.81;76.11;100817.44;5072213;28;20444;-74
2022/09/08 02:20:21;;;;;;;12.55;5.80;;;;;;;16.72;76.01;100818.13;5072166;28;20025;-74
2022/09/08 02:22:46;;;;;;;7.45;5.15;;;;;;;16.44;76.04;100775.94;5072218;28;20051;-79
2022/09/08 02:25:12;;;;;;;11.50;5.60;;;;;;;16.46;76.33;100804.63;5072054;28;20423;-77
2022/09/08 02:27:37;;;;;;;14.98;6.30;;;;;;;16.53;76.07;100813.47;5072063;28;20513;-76
2022/09/08 02:30:03;;;;;;;9.27;6.15;;;;;;;16.38;76.86;100816.66;5071854;28;20036;-77
2022/09/08 02:32:29;;;;;;;9.75;6.03;;;;;;;15.93;77.28;100781.94;5072315;28;20024;-78
2022/09/08 02:34:54;;;;;;;9.68;5.50;;;;;;;16.28;76.81;100821.69;5071737;28;20029;-75
2022/09/08 02:37:19;;;;;;;10.75;5.88;;;;;;;16.20;76.50;100807.66;5071944;28;20053;-75
2022/09/08 02:39:45;;;;;;;6.53;5.28;;;;;;;16.15;77.31;100811.91;5071416;28;20177;-74
2022/09/08 02:42:11;;;;;;;6.88;5.40;;;;;;;16.21;76.67;100814.59;5071737;28;20078;-77
2022/09/08 02:44:38;;;;;;;8.60;5.70;;;;;;;16.22;76.93;100816.34;5071575;28;20465;-77
2022/09/08 02:47:04;;;;;;;8.85;5.60;;;;;;;16.10;77.51;100810.91;5071513;28;20067;-77
2022/09/08 02:49:32;;;;;;;7.72;5.53;;;;;;;16.17;77.56;100808.47;5071481;28;20060;-76
2022/09/08 02:51:58;;;;;;;11.45;6.03;;;;;;;16.19;77.37;100811.09;5071123;28;20029;-77
2022/09/08 02:54:23;;;;;;;10.05;5.72;;;;;;;16.21;77.02;100798.09;5071220;28;20115;-74
2022/09/08 02:56:49;;;;;;;11.73;5.45;;;;;;;16.23;76.48;100793.81;5061097;28;20247;-77
2022/09/08 02:59:15;;;;;;;8.63;5.47;;;;;;;16.28;76.60;100794.78;5071108;28;20036;-76
2022/09/08 03:01:42;;;;;;;9.23;6.03;;;;;;;16.31;76.05;100780.06;5061262;28;20025;-72
2022/09/08 03:04:07;;;;;;;8.85;5.57;;;;;;;16.37;76.52;100787.09;5070484;28;20115;-74
2022/09/08 03:06:33;;;;;;;8.88;5.80;;;;;;;16.20;76.19;100749.44;5070962;28;20025;-77
2022/09/08 03:08:58;;;;;;;8.80;5.75;;;;;;;16.46;75.88;100797.72;5071656;28;20049;-71
2022/09/08 03:11:24;;;;;;;10.30;5.70;;;;;;;16.35;76.16;100783.63;5071546;28;20025;-73
2022/09/08 03:13:49;;;;;;;9.35;5.80;;;;;;;16.35;76.52;100781.00;5071317;28;20056;-74
2022/09/08 03:16:15;;;;;;;10.32;5.85;;;;;;;16.23;76.36;100749.53;5071266;28;20031;-75
2022/09/08 03:18:40;;;;;;;12.63;5.90;;;;;;;16.44;75.93;100790.72;5071106;28;20032;-74
2022/09/08 03:21:09;;;;;;;8.00;5.80;;;;;;;16.53;75.68;100785.66;5070985;28;20111;-75
2022/09/08 03:23:35;;;;;;;12.48;6.15;;;;;;;16.51;75.32;100776.97;5071241;28;20119;-74
2022/09/08 03:26:12;;;;;;;12.50;6.00;;;;;;;16.62;74.36;100787.53;5071339;28;20444;-75
2022/09/08 03:28:38;;;;;;;16.52;6.47;;;;;;;16.43;75.34;100789.81;5070988;28;20033;-71
2022/09/08 03:31:07;;;;;;;13.38;6.10;;;;;;;16.23;75.16;100750.38;5071156;28;20036;-74
2022/09/08 03:33:33;;;;;;;13.98;6.28;;;;;;;16.24;75.13;100759.09;5071006;28;20028;-75
2022/09/08 03:36:00;;;;;;;18.77;7.40;;;;;;;15.65;78.06;100805.66;5070786;28;20037;-73
2022/09/08 03:38:26;;;;;;;12.27;6.72;;;;;;;15.06;80.21;100766.16;5070020;28;20035;-72
2022/09/08 03:40:52;;;;;;;23.38;7.30;;;;;;;15.30;80.53;100803.16;5070897;28;20043;-75
2022/09/08 03:43:17;;;;;;;24.77;7.20;;;;;;;15.31;80.75;100804.00;5071341;28;20028;-72
2022/09/08 03:45:44;;;;;;;15.82;6.50;;;;;;;15.24;80.87;100813.41;5070689;28;20017;-72
2022/09/08 03:48:10;;;;;;;14.90;6.32;;;;;;;15.31;80.92;100814.41;5070361;28;20028;-74
2022/09/08 03:50:36;;;;;;;13.07;6.35;;;;;;;15.43;80.52;100806.03;5071092;28;20039;-73
2022/09/08 03:53:01;;;;;;;17.98;6.47;;;;;;;15.35;79.64;100769.41;5070633;28;20029;-74
2022/09/08 03:55:26;;;;;;;15.80;6.47;;;;;;;15.69;77.45;100820.47;5070466;28;20025;-71
2022/09/08 03:57:52;;;;;;;13.85;6.07;;;;;;;15.74;76.04;100822.28;5070485;28;20055;-72
2022/09/08 04:00:17;;;;;;;14.45;5.85;;;;;;;15.79;75.69;100818.09;5070452;28;20020;-74
2022/09/08 04:02:44;;;;;;;10.70;6.00;;;;;;;15.79;76.10;100825.91;5070484;28;20054;-72
2022/09/08 04:05:10;;;;;;;11.48;5.93;;;;;;;15.87;76.00;100829.56;5070568;28;20032;-73
2022/09/08 04:07:38;;;;;;;15.63;6.63;;;;;;;15.91;75.93;100813.13;5067545;28;20056;-74
2022/09/08 04:10:07;;;;;;;14.43;6.00;;;;;;;16.03;75.52;100820.34;5069584;28;20542;-72
2022/09/08 04:12:32;;;;;;;17.63;6.90;;;;;;;16.03;74.88;100822.06;5052416;28;20067;-71
2022/09/08 04:14:58;;;;;;;16.30;6.10;;;;;;;16.04;74.57;100826.41;5070405;28;20414;-74
2022/09/08 04:17:24;;;;;;;17.90;6.80;;;;;;;16.10;75.11;100819.63;5069976;28;20818;-74
2022/09/08 04:19:50;;;;;;;16.17;6.90;;;;;;;16.12;75.33;100814.44;5069591;28;20617;-73
2022/09/08 04:22:17;;;;;;;15.82;7.45;;;;;;;16.18;75.62;100824.97;5068443;28;20078;-71
2022/09/08 04:24:43;;;;;;;14.00;6.28;;;;;;;16.24;75.67;100813.81;5070415;28;20074;-71
2022/09/08 04:27:09;;;;;;;12.45;6.20;;;;;;;16.22;76.31;100829.38;5070163;28;20460;-73
2022/09/08 04:29:34;;;;;;;18.73;6.13;;;;;;;16.16;76.47;100814.53;5069971;28;20107;-73
2022/09/08 04:32:03;;;;;;;13.25;5.30;;;;;;;16.10;77.32;100803.09;5070216;28;20251;-74
2022/09/08 04:34:28;;;;;;;11.10;5.75;;;;;;;16.23;77.46;100838.09;5070172;28;20020;-75
2022/09/08 04:36:54;;;;;;;11.20;5.65;;;;;;;16.21;78.30;100835.44;5052389;28;20398;-78
2022/09/08 04:39:20;;;;;;;12.00;6.75;;;;;;;16.20;78.10;100835.41;5052296;28;20039;-71
2022/09/08 04:41:46;;;;;;;15.32;6.68;;;;;;;16.24;77.16;100832.91;5031685;28;20080;-76
2022/09/08 04:44:12;;;;;;;14.32;6.60;;;;;;;16.06;77.65;100840.34;5070013;28;20056;-74
2022/09/08 04:46:37;;;;;;;8.82;6.32;;;;;;;15.97;78.09;100835.84;5064104;28;20033;-72
2022/09/08 04:49:03;;;;;;;39.05;8.02;;;;;;;15.92;78.54;100845.28;5060806;28;20033;-72
2022/09/08 04:51:29;;;;;;;16.38;6.95;;;;;;;15.95;78.53;100851.44;5032072;28;20021;-74
2022/09/08 04:53:56;;;;;;;10.77;6.65;;;;;;;16.00;78.05;100859.34;5049584;28;20087;-71
2022/09/08 04:56:23;;;;;;;11.60;7.07;;;;;;;15.63;79.11;100838.56;5064742;28;20387;-72
2022/09/08 04:58:50;;;;;;;12.60;6.95;;;;;;;15.55;80.06;100862.66;5059720;28;20032;-75
2022/09/08 05:01:20;;;;;;;13.00;6.72;;;;;;;15.78;79.16;100857.97;5059811;28;20029;-71
2022/09/08 05:03:51;;;;;;;8.50;5.78;;;;;;;15.80;78.69;100857.16;5058573;28;20021;-71
2022/09/08 05:06:17;;;;;;;13.82;6.78;;;;;;;15.88;78.70;100854.75;5058589;28;20478;-71
2022/09/08 05:08:51;;;;;;;13.70;6.80;;;;;;;15.81;79.82;100873.63;5060088;28;20140;-73
2022/09/08 05:11:18;;;;;;;10.85;7.25;;;;;;;15.91;79.88;100864.34;5058238;28;20029;-72
2022/09/08 05:13:44;;;;;;;12.43;7.13;;;;;;;15.69;79.97;100823.06;5060281;28;20111;-72
2022/09/08 05:16:16;;;;;;;11.57;7.20;;;;;;;15.84;81.00;100864.22;5058761;28;20099;-72
2022/09/08 05:18:46;;;;;;;11.45;6.88;;;;;;;15.89;80.87;100869.53;5059210;28;20036;-72
2022/09/08 05:21:12;;;;;;;16.40;7.38;;;;;;;15.89;82.30;100868.63;5063013;28;20067;-74
2022/09/08 05:23:37;;;;;;;11.98;6.90;;;;;;;15.86;83.06;100869.44;5062294;28;20434;-72
2022/09/08 05:26:06;;;;;;;10.95;6.78;;;;;;;15.78;82.89;100866.66;5063933;28;20020;-71
2022/09/08 05:28:35;;;;;;;14.60;7.18;;;;;;;15.63;84.16;100856.78;5060363;28;20081;-72
2022/09/08 05:31:01;;;;;;;9.90;6.43;;;;;;;15.91;84.49;100879.97;5067988;28;20142;-74
2022/09/08 05:33:27;;;;;;;17.08;7.03;;;;;;;16.15;82.87;100872.69;5073256;28;20032;-71
2022/09/08 05:35:53;;;;;;;14.63;7.18;;;;;;;16.39;81.81;100868.81;5073122;28;20029;-73
2022/09/08 05:38:18;;;;;;;17.40;7.30;;;;;;;16.41;80.73;100837.56;5073091;28;20119;-72
2022/09/08 05:40:44;;;;;;;13.18;7.00;;;;;;;16.76;79.70;100868.59;5054817;28;20048;-73
2022/09/08 05:43:09;;;;;;;14.30;7.22;;;;;;;16.90;79.21;100872.34;5054043;28;20029;-74
2022/09/08 05:45:35;;;;;;;16.83;7.85;;;;;;;16.58;79.65;100843.97;5052980;28;20492;-74
2022/09/08 05:48:00;;;;;;;16.48;7.88;;;;;;;16.62;80.47;100876.19;5052874;28;20414;-73
2022/09/08 05:50:26;;;;;;;17.83;7.78;;;;;;;16.54;81.49;100876.03;5052989;28;20461;-72
2022/09/08 05:52:52;;;;;;;18.88;7.00;;;;;;;16.73;80.76;100873.78;5052974;28;20025;-72
2022/09/08 05:55:17;;;;;;;16.38;7.13;;;;;;;17.00;80.06;100877.72;5017283;28;20040;-77
2022/09/08 05:57:43;;;;;;;16.27;7.43;;;;;;;17.32;79.08;100885.22;5052533;28;20028;-72
2022/09/08 06:00:09;;;;;;;17.13;7.00;;;;;;;17.40;79.23;100891.47;5052814;28;20025;-74
2022/09/08 06:02:34;;;;;;;24.23;8.52;;;;;;;17.29;79.17;100878.22;5052582;28;20029;-72
2022/09/08 06:05:00;;;;;;;18.38;7.40;;;;;;;17.52;77.49;100886.44;5052735;28;20064;-72
2022/09/08 06:07:25;;;;;;;21.95;7.03;;;;;;;17.57;76.86;100848.22;5052384;28;20420;-75
2022/09/08 06:09:52;;;;;;;16.00;8.00;;;;;;;17.92;75.90;100879.16;5067106;28;20040;-73
2022/09/08 06:12:17;;;;;;;34.53;9.23;;;;;;;18.13;75.71;100888.16;5072455;28;20545;-74
2022/09/08 06:14:43;;;;;;;29.73;10.15;;;;;;;18.32;74.26;100885.75;5072294;28;20020;-74
2022/09/08 06:17:09;;;;;;;25.40;9.95;;;;;;;18.50;73.29;100882.47;5072304;28;20487;-74
2022/09/08 06:19:35;;;;;;;22.23;10.30;;;;;;;18.64;73.55;100882.63;5072329;28;20029;-73
2022/09/08 06:22:00;;;;;;;31.20;13.75;;;;;;;18.52;72.52;100838.94;5054186;28;20414;-73
2022/09/08 06:24:25;;;;;;;40.42;18.42;;;;;;;18.89;71.61;100875.88;5072110;28;20032;-74
2022/09/08 06:27:21;;;;;;;39.45;16.73;;;;;;;19.00;71.08;100881.25;5072602;28;20048;-72
2022/09/08 06:30:15;;;;;;;43.53;17.23;;;;;;;19.12;69.75;100881.38;5052254;28;20032;-74
2022/09/08 06:32:50;;;;;;;40.08;14.93;;;;;;;19.18;69.33;100864.84;4982904;28;20096;-75
2022/09/08 06:35:25;;;;;;;31.10;13.52;;;;;;;18.81;69.94;100849.66;4972622;28;20033;-77
2022/09/08 06:37:57;;;;;;;20.83;10.98;;;;;;;19.12;70.90;100881.38;4990060;28;20046;-78
2022/09/08 06:40:28;;;;;;;18.20;8.93;;;;;;;18.92;70.82;100840.19;4990304;28;20050;-72
2022/09/08 06:43:00;;;;;;;15.77;8.88;;;;;;;19.34;71.56;100874.56;4990078;28;20049;-77
2022/09/08 06:45:30;;;;;;;11.63;6.40;;;;;;;19.43;70.66;100862.38;4990092;28;20027;-72
2022/09/08 06:48:11;;;;;;;14.30;6.13;;;;;;;19.63;70.19;100862.53;4990158;28;20514;-75
2022/09/08 06:50:40;;;;;;;14.02;6.45;;;;;;;19.87;70.00;100870.53;4989871;28;20497;-71
2022/09/08 06:53:13;;;;;;;9.05;5.63;;;;;;;20.05;69.45;100866.28;4990006;28;20041;-72
2022/09/08 06:55:52;;;;;;;11.63;5.60;;;;;;;20.11;68.85;100860.16;4990043;28;20038;-75
2022/09/08 06:58:28;;;;;;;9.20;4.65;;;;;;;20.16;69.71;100861.06;4989903;28;20040;-72
2022/09/08 07:01:02;;;;;;;9.63;5.07;;;;;;;20.51;67.93;100868.16;4989874;28;20034;-75
2022/09/08 07:03:52;;;;;;;12.57;4.78;;;;;;;20.50;67.55;100867.28;4989706;28;20138;-72
2022/09/08 07:06:17;;;;;;;6.68;4.55;;;;;;;20.81;66.50;100875.25;4989694;28;20030;-72
2022/09/08 07:08:59;;;;;;;7.25;4.30;;;;;;;20.88;66.01;100863.00;5000828;28;20060;-73
2022/09/08 07:11:54;;;;;;;7.05;3.80;;;;;;;20.99;65.25;100863.00;5051484;28;20024;-72
2022/09/08 07:14:49;;;;;;;7.90;3.83;;;;;;;21.11;63.39;100862.13;5051147;28;20562;-72
2022/09/08 07:17:20;;;;;;;8.15;3.72;;;;;;;20.64;64.99;100829.72;5051093;28;20503;-74
2022/09/08 07:19:54;;;;;;;8.70;3.92;;;;;;;20.96;65.87;100866.50;5051115;28;20041;-72
2022/09/08 07:22:32;;;;;;;10.25;4.20;;;;;;;21.09;64.59;100871.75;5051242;28;20025;-71
2022/09/08 07:25:15;;;;;;;6.20;3.90;;;;;;;21.10;63.60;100840.25;5050974;28;20033;-70
2022/09/08 07:27:41;;;;;;;9.43;3.90;;;;;;;21.41;63.38;100855.09;5053321;28;20399;-78
2022/09/08 07:30:13;;;;;;;7.75;3.75;;;;;;;21.53;62.26;100869.97;5051002;28;20091;-72
2022/09/08 07:32:39;;;;;;;8.40;3.80;;;;;;;21.60;62.49;100858.59;5050882;28;20025;-71
2022/09/08 07:35:34;;;;;;;8.50;4.22;;;;;;;21.58;62.11;100858.59;5032781;28;20025;-76
2022/09/08 07:38:08;;;;;;;5.65;3.47;;;;;;;21.91;61.23;100863.78;5050752;28;20108;-72
2022/09/08 07:40:48;;;;;;;7.20;3.53;;;;;;;22.11;60.34;100853.16;5032985;28;20025;-72
2022/09/08 07:43:15;;;;;;;10.70;6.15;;;;;;;22.16;61.01;100854.00;5050340;28;20092;-70
2022/09/08 07:45:50;;;;;;;8.65;3.55;;;;;;;22.30;59.98;100857.41;5050287;28;20033;-71
2022/09/08 07:48:31;;;;;;;5.57;3.55;;;;;;;22.02;59.55;100796.25;5050633;28;20050;-74
2022/09/08 07:51:10;;;;;;;12.30;3.55;;;;;;;22.46;58.97;100849.50;5050868;28;20032;-72
2022/09/08 07:53:58;;;;;;;6.78;3.38;;;;;;;22.60;59.15;100862.56;5051212;28;20032;-75
2022/09/08 07:56:38;;;;;;;5.85;3.30;;;;;;;22.70;58.29;100858.97;5050782;28;20036;-78
2022/09/08 07:59:16;;;;;;;10.30;3.50;;;;;;;22.64;59.34;100859.00;5050648;28;20036;-74
2022/09/08 08:01:50;;;;;;;10.20;3.70;;;;;;;22.46;58.85;100800.38;5050938;28;20098;-73
2022/09/08 08:04:22;;;;;;;10.65;4.43;;;;;;;22.69;57.83;100862.50;5032781;28;20060;-72
2022/09/08 08:06:50;;;;;;;6.72;3.20;;;;;;;22.75;56.51;100830.00;5050059;28;20495;-78
2022/09/08 08:09:21;;;;;;;6.28;3.53;;;;;;;22.98;55.25;100865.78;5050440;28;20017;-75
2022/09/08 08:11:57;;;;;;;8.02;3.47;;;;;;;22.96;55.87;100860.53;5061705;28;20021;-73
2022/09/08 08:14:33;;;;;;;7.38;3.95;;;;;;;23.13;55.51;100848.97;5070329;28;20029;-72
2022/09/08 08:17:13;;;;;;;5.32;3.10;;;;;;;23.31;55.29;100846.22;5070257;28;20040;-75
2022/09/08 08:19:47;;;;;;;5.65;3.17;;;;;;;23.38;52.54;100857.59;5052347;28;20529;-74
2022/09/08 08:22:38;;;;;;;8.50;3.72;;;;;;;23.50;52.14;100857.47;5070414;28;20056;-73
2022/09/08 08:25:09;;;;;;;12.70;3.25;;;;;;;23.65;52.57;100852.88;5070310;28;20028;-72
2022/09/08 08:27:34;;;;;;;6.35;3.35;;;;;;;23.61;51.44;100841.50;5069918;28;20040;-75
2022/09/08 08:30:07;;;;;;;7.78;3.78;;;;;;;23.76;51.71;100832.53;5070263;28;20543;-75
2022/09/08 08:32:38;;;;;;;16.80;4.05;;;;;;;23.90;51.30;100830.63;5070039;28;20111;-75
2022/09/08 08:35:06;;;;;;;7.75;3.30;;;;;;;23.88;47.96;100828.91;5070168;28;20040;-73
2022/09/08 08:37:36;;;;;;;5.90;3.13;;;;;;;24.01;48.11;100825.25;5070473;28;20032;-73
2022/09/08 08:40:21;;;;;;;5.68;3.05;;;;;;;24.13;48.55;100828.63;5069716;28;20035;-75
2022/09/08 08:43:08;;;;;;;8.07;3.63;;;;;;;24.15;49.93;100824.19;5070208;28;20034;-75
2022/09/08 08:45:57;;;;;;;6.60;3.53;;;;;;;24.15;49.65;100824.19;5070201;28;20371;-73
2022/09/08 08:48:40;;;;;;;8.55;3.65;;;;;;;24.05;49.63;100824.31;5069782;28;20028;-77
2022/09/08 08:51:33;;;;;;;5.15;3.03;;;;;;;24.01;48.59;100779.53;5069894;28;20070;-73
2022/09/08 08:54:14;;;;;;;9.23;3.30;;;;;;;24.36;48.52;100813.34;5069935;28;20051;-72
2022/09/08 08:56:40;;;;;;;7.82;3.58;;;;;;;24.58;49.26;100804.22;5073286;28;20029;-74
2022/09/08 08:59:25;;;;;;;4.32;3.00;;;;;;;24.70;49.00;100811.97;5073975;28;20418;-74
2022/09/08 09:01:56;;;;;;;6.47;3.65;;;;;;;24.65;50.20;100804.13;5073756;28;20094;-75
2022/09/08 09:04:52;;;;;;;9.55;4.03;;;;;;;24.73;48.79;100800.50;5073930;28;20063;-76
2022/09/08 09:07:36;;;;;;;6.35;3.42;;;;;;;24.70;49.53;100796.13;5073866;28;20057;-74
2022/09/08 09:10:39;;;;;;;6.22;3.15;;;;;;;24.97;49.03;100786.88;5073488;28;20388;-78
2022/09/08 09:13:34;;;;;;;4.80;3.10;;;;;;;25.29;47.46;100773.94;5073588;28;20115;-76
2022/09/08 09:16:27;;;;;;;7.07;3.17;;;;;;;25.35;48.18;100784.41;5073537;28;20513;-74
2022/09/08 09:19:12;;;;;;;6.63;3.17;;;;;;;25.31;48.79;100778.31;5072973;28;20525;-73
2022/09/08 09:22:06;;;;;;;7.40;3.20;;;;;;;25.42;47.48;100771.97;5073045;28;20543;-77
2022/09/08 09:25:01;;;;;;;6.82;3.20;;;;;;;25.47;47.65;100762.16;5073436;28;20020;-75
2022/09/08 09:27:43;;;;;;;9.23;3.15;;;;;;;25.65;48.13;100763.56;5061661;28;20016;-72
2022/09/08 09:30:12;;;;;;;11.18;3.47;;;;;;;25.74;48.15;100758.06;5064141;28;20025;-73
2022/09/08 09:32:59;;;;;;;5.72;3.50;;;;;;;25.88;46.73;100754.25;5061499;28;20896;-76
2022/09/08 09:35:46;;;;;;;7.90;3.20;;;;;;;26.10;45.07;100762.63;5064773;28;20107;-74
2022/09/08 09:38:33;;;;;;;5.85;3.13;;;;;;;26.13;45.62;100754.59;5064923;28;20024;-72
2022/09/08 09:41:06;;;;;;;7.38;3.33;;;;;;;26.20;45.31;100752.69;5054025;28;20044;-74
2022/09/08 09:44:17;;;;;;;10.00;3.20;;;;;;;26.27;44.31;100757.81;5052322;28;20495;-70
2022/09/08 09:46:45;;;;;;;5.20;3.10;;;;;;;26.46;42.55;100755.56;5070617;28;20036;-72
2022/09/08 09:49:43;;;;;;;5.82;2.50;;;;;;;26.70;41.81;100753.22;5071039;28;20028;-71
2022/09/08 09:52:29;;;;;;;7.60;3.53;;;;;;;26.85;41.48;100745.81;5070906;28;20054;-72
2022/09/08 09:55:02;;;;;;;8.40;3.10;;;;;;;27.04;41.00;100752.38;5069075;28;20029;-70
2022/09/08 09:57:46;;;;;;;4.20;2.97;;;;;;;26.99;40.42;100742.78;5070603;28;20017;-68
2022/09/08 10:00:18;;;;;;;6.63;3.38;;;;;;;27.04;41.34;100739.13;5069996;28;20024;-71
2022/09/08 10:03:21;;;;;;;17.15;4.63;;;;;;;27.19;41.05;100737.81;5015788;28;20032;-71
2022/09/08 10:06:23;;;;;;;5.47;3.03;;;;;;;27.24;39.19;100733.25;5069364;28;20162;-72
2022/09/08 10:08:55;;;;;;;5.32;3.10;;;;;;;27.35;38.91;100721.47;5019947;28;20145;-69
2022/09/08 10:11:41;;;;;;;7.95;3.08;;;;;;;27.37;38.16;100727.63;5071211;28;20047;-70
2022/09/08 10:14:34;;;;;;;4.63;2.97;;;;;;;27.51;38.54;100719.28;5068046;28;20028;-71
2022/09/08 10:17:14;;;;;;;4.82;3.38;;;;;;;27.35;38.26;100713.53;5071335;28;20032;-67
2022/09/08 10:19:58;;;;;;;6.00;3.22;;;;;;;27.48;37.55;100717.59;5069931;28;20406;-72
2022/09/08 10:23:09;;;;;;;9.35;2.83;;;;;;;27.45;36.89;100715.00;5071554;28;20028;-69
2022/09/08 10:25:57;;;;;;;4.63;2.75;;;;;;;27.54;38.06;100692.66;4970103;28;20042;-70
2022/09/08 10:28:47;;;;;;;4.78;2.60;;;;;;;27.84;35.57;100712.09;4967911;28;20034;-70
2022/09/08 10:31:21;;;;;;;4.95;2.92;;;;;;;27.79;36.32;100710.47;4968141;28;20457;-70
2022/09/08 10:34:09;;;;;;;6.50;2.90;;;;;;;27.91;35.24;100710.97;4966785;28;20057;-68
2022/09/08 10:36:53;;;;;;;7.18;3.15;;;;;;;27.36;35.43;100708.16;4969127;28;20149;-68
2022/09/08 10:39:27;;;;;;;5.68;2.97;;;;;;;27.42;35.36;100702.72;4969269;28;20035;-69
2022/09/08 10:42:12;;;;;;;9.68;3.10;;;;;;;27.97;36.75;100703.75;4970232;28;20047;-69
2022/09/08 10:44:49;;;;;;;5.13;2.97;;;;;;;28.00;35.00;100680.63;4967762;28;20035;-70
2022/09/08 10:47:27;;;;;;;5.82;3.10;;;;;;;27.95;35.01;100669.25;4968922;28;20142;-71
2022/09/08 10:50:17;;;;;;;9.70;3.38;;;;;;;28.28;34.77;100685.03;4968936;28;20509;-70
2022/09/08 10:53:07;;;;;;;5.32;3.03;;;;;;;28.35;34.10;100653.84;4968886;28;20035;-71
2022/09/08 10:55:45;;;;;;;5.70;3.13;;;;;;;27.80;34.96;100649.41;4968271;28;20046;-72
2022/09/08 10:58:31;;;;;;;5.43;2.90;;;;;;;27.96;36.11;100673.66;4968121;28;20166;-71
2022/09/08 11:01:10;;;;;;;6.45;2.92;;;;;;;28.09;36.83;100667.06;4970424;28;20038;-71
2022/09/08 11:04:04;;;;;;;4.63;2.73;;;;;;;28.37;36.37;100658.16;5069591;28;20070;-71
2022/09/08 11:06:37;;;;;;;5.28;2.70;;;;;;;28.71;34.56;100661.47;5070360;28;20029;-71
2022/09/08 11:09:30;;;;;;;3.30;2.40;;;;;;;28.75;33.16;100647.16;5070338;28;20045;-70
2022/09/08 11:12:08;;;;;;;4.65;2.88;;;;;;;28.98;32.72;100645.44;5070286;28;20043;-72
2022/09/08 11:15:13;;;;;;;4.88;2.53;;;;;;;29.27;32.73;100646.13;5067784;28;20086;-70
2022/09/08 11:17:47;;;;;;;4.63;2.72;;;;;;;29.37;31.85;100642.22;5068271;28;20029;-70
2022/09/08 11:20:43;;;;;;;5.85;3.00;;;;;;;29.61;31.33;100643.06;5068157;28;20081;-73
2022/09/08 11:23:23;;;;;;;5.63;2.85;;;;;;;29.51;32.16;100639.03;5066704;28;20513;-68
2022/09/08 11:26:33;;;;;;;6.75;2.67;;;;;;;29.41;31.70;100643.84;5067117;28;20498;-70
2022/09/08 11:29:12;;;;;;;3.92;2.65;;;;;;;29.76;31.20;100630.06;5068273;28;20037;-70
2022/09/08 11:31:41;;;;;;;3.90;2.77;;;;;;;29.90;30.27;100632.22;5068407;28;20025;-69
2022/09/08 11:34:25;;;;;;;7.40;2.75;;;;;;;29.70;31.59;100625.88;5067932;28;20496;-70
2022/09/08 11:36:59;;;;;;;4.00;2.70;;;;;;;29.21;31.57;100623.31;5069704;28;20089;-69
2022/09/08 11:39:38;;;;;;;4.25;2.60;;;;;;;29.66;30.60;100621.59;5069273;28;20033;-70
2022/09/08 11:42:03;;;;;;;;;;;;;;;29.83;30.57;100620.91;5069857;28;20029;-72
2022/09/08 11:45:09;;;;;;;3.75;2.47;;;;;;;29.64;29.95;100591.53;5069776;28;19920;-70
2022/09/08 11:48:05;;;;;;;5.00;2.92;;;;;;;29.95;32.99;100614.25;5067592;28;20048;-70
2022/09/08 11:50:59;;;;;;;3.33;2.42;;;;;;;30.20;29.53;100598.09;5076072;28;20406;-70
2022/09/08 11:53:46;;;;;;;4.53;2.90;;;;;;;30.23;29.24;100594.41;5088479;28;20024;-71
2022/09/08 11:56:23;;;;;;;5.97;2.20;;;;;;;29.95;28.63;100604.44;5088900;28;20028;-71